Time;durP1;ratioP1;P1;durP2;ratioP2;P2;SDS_P1;SDS_P2;PMS_P1;PMS_P2;Temp;Humidity;BMP_temperature;BMP_pressure;BME280_temperature;BME280_humidity;BME280_pressure;Samples;Min_cycle;Max_cycle;Signal;HPM_P1;HPM_P2
2023/10/22 00:02:05;;;;;;;5.80;3.92;;;;;;;;;;5053743;28;20047;-74
2023/10/22 00:04:31;;;;;;;5.18;3.60;;;;;;;;;;5053393;28;20040;-74
2023/10/22 00:06:57;;;;;;;5.90;3.78;;;;;;;;;;5053066;28;20069;-74
2023/10/22 00:09:23;;;;;;;6.32;4.15;;;;;;;;;;5069944;28;20020;-74
2023/10/22 00:11:49;;;;;;;20.08;5.38;;;;;;;;;;5036106;28;20525;-74
2023/10/22 00:14:14;;;;;;;6.78;4.47;;;;;;;;;;5051298;28;20620;-75
2023/10/22 00:16:41;;;;;;;9.15;3.92;;;;;;;;;;5067044;28;20044;-75
2023/10/22 00:19:07;;;;;;;8.68;3.75;;;;;;;;;;5069239;28;20583;-74
2023/10/22 00:21:33;;;;;;;4.50;3.13;;;;;;;;;;5070008;28;20353;-75
2023/10/22 00:23:58;;;;;;;5.78;3.55;;;;;;;;;;5071017;28;20033;-76
2023/10/22 00:26:24;;;;;;;6.80;3.97;;;;;;;;;;5070357;28;20099;-75
2023/10/22 00:28:50;;;;;;;5.63;3.25;;;;;;;;;;5063479;28;20085;-75
2023/10/22 00:31:15;;;;;;;7.43;3.30;;;;;;;;;;5071165;28;20028;-75
2023/10/22 00:33:41;;;;;;;4.20;2.88;;;;;;;;;;5070882;28;20422;-74
2023/10/22 00:36:07;;;;;;;7.57;2.95;;;;;;;;;;5068851;28;20039;-75
2023/10/22 00:38:33;;;;;;;5.68;2.75;;;;;;;;;;5085454;28;20683;-77
2023/10/22 00:40:58;;;;;;;3.40;2.60;;;;;;;;;;5052446;28;20028;-75
2023/10/22 00:43:24;;;;;;;5.30;2.55;;;;;;;;;;5069359;28;20035;-75
2023/10/22 00:45:49;;;;;;;3.20;2.38;;;;;;;;;;5051987;28;20126;-74
2023/10/22 00:48:17;;;;;;;3.80;2.03;;;;;;;;;;5068991;28;20033;-75
2023/10/22 00:50:43;;;;;;;4.80;1.85;;;;;;;;;;5065655;28;20431;-75
2023/10/22 00:53:12;;;;;;;3.25;1.55;;;;;;;;;;5068568;28;20029;-74
2023/10/22 00:55:39;;;;;;;1.95;1.55;;;;;;;;;;5085968;28;20038;-74
2023/10/22 00:58:06;;;;;;;3.83;1.77;;;;;;;;;;5085630;28;20039;-74
2023/10/22 01:00:33;;;;;;;1.83;1.50;;;;;;;;;;5085650;28;20408;-75
2023/10/22 01:03:01;;;;;;;2.47;1.50;;;;;;;;;;5066598;28;20036;-74
2023/10/22 01:05:28;;;;;;;3.65;1.42;;;;;;;;;;5051725;28;20028;-73
2023/10/22 01:07:55;;;;;;;5.05;2.05;;;;;;;;;;5076974;28;20047;-74
2023/10/22 01:10:21;;;;;;;4.70;1.80;;;;;;;;;;5044941;28;20039;-75
2023/10/22 01:12:47;;;;;;;10.18;2.72;;;;;;;;;;5052191;28;20388;-75
2023/10/22 01:15:12;;;;;;;3.67;1.77;;;;;;;;;;5068287;28;20368;-75
2023/10/22 01:17:38;;;;;;;6.45;1.80;;;;;;;;;;5052025;28;20446;-74
2023/10/22 01:20:05;;;;;;;3.28;1.65;;;;;;;;;;5069840;28;20056;-74
2023/10/22 01:22:33;;;;;;;3.42;1.63;;;;;;;;;;5035676;28;20071;-74
2023/10/22 01:24:59;;;;;;;5.70;1.73;;;;;;;;;;5071521;28;20134;-74
2023/10/22 01:27:24;;;;;;;2.55;1.80;;;;;;;;;;5051508;28;20111;-75
2023/10/22 01:29:50;;;;;;;1.88;1.17;;;;;;;;;;5067799;28;20066;-74
2023/10/22 01:32:15;;;;;;;4.63;1.35;;;;;;;;;;5051035;28;20036;-74
2023/10/22 01:34:41;;;;;;;2.38;1.15;;;;;;;;;;5067952;28;20138;-74
2023/10/22 01:37:07;;;;;;;1.45;1.05;;;;;;;;;;5067165;28;20488;-74
2023/10/22 01:39:32;;;;;;;1.85;0.85;;;;;;;;;;5068241;28;20032;-75
2023/10/22 01:41:58;;;;;;;1.23;1.00;;;;;;;;;;5067619;28;20446;-75
2023/10/22 01:44:23;;;;;;;1.25;1.10;;;;;;;;;;5068137;28;20060;-75
2023/10/22 01:46:50;;;;;;;1.00;0.88;;;;;;;;;;5067768;28;20031;-75
2023/10/22 01:49:15;;;;;;;1.05;0.80;;;;;;;;;;5067755;28;20039;-74
2023/10/22 01:51:41;;;;;;;0.82;0.68;;;;;;;;;;5069328;28;20028;-75
2023/10/22 01:54:06;;;;;;;0.60;0.60;;;;;;;;;;5050773;28;20440;-75
2023/10/22 01:56:32;;;;;;;1.63;0.82;;;;;;;;;;5051054;28;20024;-75
2023/10/22 01:58:58;;;;;;;6.88;1.08;;;;;;;;;;5068804;28;20032;-74
2023/10/22 02:01:25;;;;;;;2.58;1.10;;;;;;;;;;5068961;28;20064;-74
2023/10/22 02:03:51;;;;;;;1.02;0.50;;;;;;;;;;5069275;28;20075;-75
2023/10/22 02:06:17;;;;;;;1.27;0.65;;;;;;;;;;5050829;28;20114;-74
2023/10/22 02:08:45;;;;;;;0.60;0.60;;;;;;;;;;5050970;28;20055;-74
2023/10/22 02:11:11;;;;;;;3.03;0.70;;;;;;;;;;5050750;28;20743;-74
2023/10/22 02:13:37;;;;;;;3.95;0.75;;;;;;;;;;5067285;28;20027;-74
2023/10/22 02:16:02;;;;;;;0.98;0.70;;;;;;;;;;5067106;28;20064;-74
2023/10/22 02:18:28;;;;;;;1.33;0.80;;;;;;;;;;5067452;28;20118;-75
2023/10/22 02:20:55;;;;;;;1.42;0.80;;;;;;;;;;5067388;28;20492;-75
2023/10/22 02:23:21;;;;;;;3.17;1.10;;;;;;;;;;5067302;28;20029;-75
2023/10/22 02:25:49;;;;;;;2.42;1.10;;;;;;;;;;5067487;28;20562;-75
2023/10/22 02:28:15;;;;;;;1.00;0.60;;;;;;;;;;5050612;28;20055;-75
2023/10/22 02:30:41;;;;;;;0.68;0.50;;;;;;;;;;5050960;28;20028;-75
2023/10/22 02:33:07;;;;;;;0.60;0.60;;;;;;;;;;5050779;28;20123;-75
2023/10/22 02:35:38;;;;;;;3.30;0.95;;;;;;;;;;5068925;28;20581;-75
2023/10/22 02:38:05;;;;;;;1.00;0.65;;;;;;;;;;5050769;28;20730;-75
2023/10/22 02:40:34;;;;;;;1.17;0.70;;;;;;;;;;5051728;28;20035;-75
2023/10/22 02:43:00;;;;;;;1.30;0.70;;;;;;;;;;5068077;28;20027;-74
2023/10/22 02:45:25;;;;;;;1.75;0.90;;;;;;;;;;5068448;28;20051;-74
2023/10/22 02:47:51;;;;;;;0.93;0.63;;;;;;;;;;5068153;28;20135;-75
2023/10/22 02:50:16;;;;;;;0.60;0.60;;;;;;;;;;5071632;28;20033;-75
2023/10/22 02:52:42;;;;;;;1.20;0.52;;;;;;;;;;5073948;28;20017;-73
2023/10/22 02:55:08;;;;;;;1.10;0.70;;;;;;;;;;5072399;28;20078;-74
2023/10/22 02:57:34;;;;;;;0.98;0.70;;;;;;;;;;5073007;28;20033;-75
2023/10/22 03:00:00;;;;;;;0.70;0.70;;;;;;;;;;5072370;28;20046;-74
2023/10/22 03:02:25;;;;;;;0.50;0.50;;;;;;;;;;5071152;28;20032;-74
2023/10/22 03:04:51;;;;;;;0.88;0.82;;;;;;;;;;5053983;28;20021;-75
2023/10/22 03:07:16;;;;;;;0.43;0.38;;;;;;;;;;5070720;28;20057;-74
2023/10/22 03:09:42;;;;;;;0.98;0.50;;;;;;;;;;5070940;28;20029;-75
2023/10/22 03:12:08;;;;;;;1.95;0.43;;;;;;;;;;5072181;28;20024;-75
2023/10/22 03:14:34;;;;;;;1.23;0.73;;;;;;;;;;5072194;28;20036;-75
2023/10/22 03:16:59;;;;;;;0.47;0.47;;;;;;;;;;5070899;28;20032;-76
2023/10/22 03:19:25;;;;;;;3.22;0.77;;;;;;;;;;5072525;28;20028;-74
2023/10/22 03:21:50;;;;;;;0.55;0.50;;;;;;;;;;5071232;28;20051;-74
2023/10/22 03:24:17;;;;;;;0.65;0.60;;;;;;;;;;5072105;28;20103;-75
2023/10/22 03:26:43;;;;;;;2.83;0.80;;;;;;;;;;5071048;28;20645;-76
2023/10/22 03:29:09;;;;;;;0.57;0.30;;;;;;;;;;5071204;28;20051;-75
2023/10/22 03:31:34;;;;;;;0.45;0.30;;;;;;;;;;5072894;28;20061;-76
2023/10/22 03:34:00;;;;;;;1.73;0.35;;;;;;;;;;5054420;28;20028;-75
2023/10/22 03:36:25;;;;;;;1.17;0.57;;;;;;;;;;5073482;28;20103;-75
2023/10/22 03:38:51;;;;;;;1.17;0.50;;;;;;;;;;5038564;28;20131;-76
2023/10/22 03:41:17;;;;;;;0.30;0.30;;;;;;;;;;5018096;28;20049;-75
2023/10/22 03:43:43;;;;;;;1.75;0.40;;;;;;;;;;5050806;28;20024;-75
2023/10/22 03:46:09;;;;;;;0.65;0.50;;;;;;;;;;5050476;28;20535;-75
2023/10/22 03:48:35;;;;;;;2.55;0.60;;;;;;;;;;5050866;28;20045;-75
2023/10/22 03:51:00;;;;;;;1.85;0.40;;;;;;;;;;5065222;28;20036;-74
2023/10/22 03:53:26;;;;;;;0.75;0.50;;;;;;;;;;5055419;28;20036;-74
2023/10/22 03:55:52;;;;;;;0.73;0.50;;;;;;;;;;5072993;28;20345;-75
2023/10/22 03:58:18;;;;;;;0.80;0.40;;;;;;;;;;5056725;28;20507;-74
2023/10/22 04:00:44;;;;;;;2.58;1.23;;;;;;;;;;5077364;28;20233;-75
2023/10/22 04:03:11;;;;;;;1.77;0.73;;;;;;;;;;5060189;28;20025;-75
2023/10/22 04:05:37;;;;;;;4.63;0.80;;;;;;;;;;5056068;28;20029;-75
2023/10/22 04:08:03;;;;;;;1.88;0.65;;;;;;;;;;5042541;28;20024;-75
2023/10/22 04:10:28;;;;;;;2.03;0.77;;;;;;;;;;5048781;28;20028;-75
2023/10/22 04:12:55;;;;;;;1.75;0.60;;;;;;;;;;5078798;28;20074;-75
2023/10/22 04:15:20;;;;;;;2.00;0.60;;;;;;;;;;5080406;28;20063;-75
2023/10/22 04:17:47;;;;;;;0.95;0.60;;;;;;;;;;5090382;28;20116;-75
2023/10/22 04:20:12;;;;;;;1.48;0.55;;;;;;;;;;5043345;28;20131;-75
2023/10/22 04:22:38;;;;;;;0.70;0.60;;;;;;;;;;5050025;28;20115;-75
2023/10/22 04:25:04;;;;;;;1.77;0.40;;;;;;;;;;5068771;28;20116;-74
2023/10/22 04:27:30;;;;;;;1.77;0.52;;;;;;;;;;5066200;28;20513;-75
2023/10/22 04:29:56;;;;;;;0.95;0.32;;;;;;;;;;5050528;28;20104;-75
2023/10/22 04:32:22;;;;;;;0.82;0.40;;;;;;;;;;5065726;28;20381;-75
2023/10/22 04:34:48;;;;;;;0.95;0.50;;;;;;;;;;5066362;28;20025;-75
2023/10/22 04:37:15;;;;;;;1.52;0.55;;;;;;;;;;5071017;28;20038;-75
2023/10/22 04:39:41;;;;;;;0.90;0.60;;;;;;;;;;5052932;28;20119;-75
2023/10/22 04:42:07;;;;;;;1.55;0.82;;;;;;;;;;5070731;28;20097;-75
2023/10/22 04:44:33;;;;;;;0.43;0.43;;;;;;;;;;5070434;28;20033;-74
2023/10/22 04:46:58;;;;;;;0.73;0.60;;;;;;;;;;5069218;28;20135;-75
2023/10/22 04:49:26;;;;;;;1.65;0.60;;;;;;;;;;5070536;28;20032;-74
2023/10/22 04:51:51;;;;;;;2.05;0.60;;;;;;;;;;5052704;28;20024;-74
2023/10/22 04:54:18;;;;;;;1.42;0.50;;;;;;;;;;5052448;28;20503;-76
2023/10/22 04:56:43;;;;;;;2.03;0.80;;;;;;;;;;5052570;28;20058;-75
2023/10/22 04:59:09;;;;;;;1.25;0.50;;;;;;;;;;5069383;28;20385;-74
2023/10/22 05:01:34;;;;;;;0.38;0.30;;;;;;;;;;5070931;28;20031;-75
2023/10/22 05:04:00;;;;;;;0.93;0.50;;;;;;;;;;5068890;28;20138;-74
2023/10/22 05:06:25;;;;;;;2.90;0.50;;;;;;;;;;5070410;28;20345;-75
2023/10/22 05:08:51;;;;;;;1.00;0.55;;;;;;;;;;5052496;28;20024;-76
2023/10/22 05:11:18;;;;;;;1.70;1.00;;;;;;;;;;5052255;28;20031;-75
2023/10/22 05:13:45;;;;;;;1.25;0.40;;;;;;;;;;5070540;28;20068;-75
2023/10/22 05:16:10;;;;;;;2.42;0.40;;;;;;;;;;5065376;28;20052;-74
2023/10/22 05:18:37;;;;;;;1.33;1.08;;;;;;;;;;5048673;28;20051;-75
2023/10/22 05:21:07;;;;;;;1.67;0.70;;;;;;;;;;5067969;28;20472;-76
2023/10/22 05:23:33;;;;;;;1.42;0.55;;;;;;;;;;5052358;28;20028;-74
2023/10/22 05:26:06;;;;;;;1.17;0.80;;;;;;;;;;5070009;28;20031;-76
2023/10/22 05:28:32;;;;;;;4.82;2.17;;;;;;;;;;5070567;28;20028;-75
2023/10/22 05:30:58;;;;;;;1.63;0.63;;;;;;;;;;5052277;28;20420;-75
2023/10/22 05:33:23;;;;;;;1.13;0.93;;;;;;;;;;5070435;28;20033;-76
2023/10/22 05:35:49;;;;;;;1.40;0.90;;;;;;;;;;5071005;28;20139;-75
2023/10/22 05:38:14;;;;;;;1.67;0.80;;;;;;;;;;5069496;28;20036;-77
2023/10/22 05:40:40;;;;;;;0.85;0.80;;;;;;;;;;5070300;28;20032;-76
2023/10/22 05:43:05;;;;;;;3.45;0.88;;;;;;;;;;5071926;28;20029;-77
2023/10/22 05:45:32;;;;;;;2.25;1.15;;;;;;;;;;5072985;28;20397;-76
2023/10/22 05:47:57;;;;;;;1.40;1.10;;;;;;;;;;5071874;28;20032;-76
2023/10/22 05:50:23;;;;;;;1.08;0.85;;;;;;;;;;5052587;28;20502;-76
2023/10/22 05:52:50;;;;;;;2.78;1.30;;;;;;;;;;5070210;28;20416;-77
2023/10/22 05:55:17;;;;;;;1.50;1.05;;;;;;;;;;5070590;28;20077;-76
2023/10/22 05:57:47;;;;;;;3.00;1.48;;;;;;;;;;5070118;28;20051;-76
2023/10/22 06:00:14;;;;;;;2.45;1.25;;;;;;;;;;5051938;28;20032;-76
2023/10/22 06:02:40;;;;;;;3.03;1.27;;;;;;;;;;5070284;28;20082;-77
2023/10/22 06:05:08;;;;;;;2.42;1.30;;;;;;;;;;5070283;28;20493;-78
2023/10/22 06:07:34;;;;;;;1.65;1.35;;;;;;;;;;5070061;28;20046;-77
2023/10/22 06:10:00;;;;;;;2.75;1.40;;;;;;;;;;5072208;28;20665;-79
2023/10/22 06:12:25;;;;;;;1.55;1.40;;;;;;;;;;5054645;28;20434;-76
2023/10/22 06:14:51;;;;;;;2.95;1.52;;;;;;;;;;5072569;28;20044;-77
2023/10/22 06:17:16;;;;;;;2.00;1.73;;;;;;;;;;5069902;28;20115;-76
2023/10/22 06:19:43;;;;;;;2.15;1.45;;;;;;;;;;5070640;28;20468;-77
2023/10/22 06:22:09;;;;;;;2.85;1.50;;;;;;;;;;5071621;28;20031;-75
2023/10/22 06:24:34;;;;;;;1.90;1.60;;;;;;;;;;5074049;28;20076;-78
2023/10/22 06:27:00;;;;;;;2.45;1.85;;;;;;;;;;5074960;28;20093;-78
2023/10/22 06:29:25;;;;;;;3.53;2.40;;;;;;;;;;5071587;28;20040;-78
2023/10/22 06:31:51;;;;;;;2.20;1.70;;;;;;;;;;5072277;28;20027;-78
2023/10/22 06:34:16;;;;;;;1.40;1.30;;;;;;;;;;5068506;28;20461;-76
2023/10/22 06:36:42;;;;;;;2.88;1.75;;;;;;;;;;5068581;28;20119;-76
2023/10/22 06:39:08;;;;;;;1.80;1.67;;;;;;;;;;5071064;28;20507;-76
2023/10/22 06:41:33;;;;;;;2.60;1.90;;;;;;;;;;5070233;28;20337;-76
2023/10/22 06:43:59;;;;;;;3.05;1.50;;;;;;;;;;5051773;28;20036;-77
2023/10/22 06:46:26;;;;;;;1.88;1.52;;;;;;;;;;5051228;28;20032;-76
2023/10/22 06:48:51;;;;;;;3.45;1.50;;;;;;;;;;5084851;28;20031;-77
2023/10/22 06:51:17;;;;;;;5.10;3.08;;;;;;;;;;5067866;28;20190;-77
2023/10/22 06:53:44;;;;;;;2.88;1.90;;;;;;;;;;5067715;28;20048;-78
2023/10/22 06:56:12;;;;;;;5.22;2.78;;;;;;;;;;5051023;28;20094;-77
2023/10/22 06:58:38;;;;;;;3.58;1.80;;;;;;;;;;5069112;28;20036;-76
2023/10/22 07:01:11;;;;;;;3.05;1.75;;;;;;;;;;5068970;28;20063;-77
2023/10/22 07:03:42;;;;;;;2.65;1.75;;;;;;;;;;5051179;28;20491;-76
2023/10/22 07:06:08;;;;;;;2.40;1.83;;;;;;;;;;5068158;28;20020;-77
2023/10/22 07:08:34;;;;;;;1.90;1.42;;;;;;;;;;5051581;28;20025;-76
2023/10/22 07:11:00;;;;;;;3.08;1.80;;;;;;;;;;5069680;28;20384;-77
2023/10/22 07:13:26;;;;;;;3.33;1.50;;;;;;;;;;5068469;28;20134;-78
2023/10/22 07:15:53;;;;;;;2.47;1.70;;;;;;;;;;5069493;28;20128;-77
2023/10/22 07:18:19;;;;;;;2.45;1.27;;;;;;;;;;5069181;28;20035;-77
2023/10/22 07:20:46;;;;;;;6.10;1.85;;;;;;;;;;5067712;28;20029;-76
2023/10/22 07:23:12;;;;;;;4.00;1.67;;;;;;;;;;5068674;28;20409;-75
2023/10/22 07:25:38;;;;;;;2.53;1.30;;;;;;;;;;5051094;28;20021;-76
2023/10/22 07:28:05;;;;;;;2.53;1.20;;;;;;;;;;5067858;28;20564;-77
2023/10/22 07:30:31;;;;;;;2.83;1.02;;;;;;;;;;5067099;28;20093;-76
2023/10/22 07:32:58;;;;;;;2.22;1.35;;;;;;;;;;5050988;28;20029;-77
2023/10/22 07:35:23;;;;;;;3.63;1.30;;;;;;;;;;5035890;28;20457;-76
2023/10/22 07:37:49;;;;;;;2.00;1.30;;;;;;;;;;5071476;28;20134;-77
2023/10/22 07:40:19;;;;;;;2.13;1.30;;;;;;;;;;5054664;28;20127;-76
2023/10/22 07:42:48;;;;;;;1.30;1.02;;;;;;;;;;5056148;28;20032;-78
2023/10/22 07:45:16;;;;;;;1.50;0.80;;;;;;;;;;5054789;28;20024;-76
2023/10/22 07:47:41;;;;;;;1.42;1.10;;;;;;;;;;5072714;28;20031;-77
2023/10/22 07:50:07;;;;;;;2.17;1.13;;;;;;;;;;5070877;28;20115;-76
2023/10/22 07:52:34;;;;;;;4.32;1.63;;;;;;;;;;5071831;28;20025;-77
2023/10/22 07:55:00;;;;;;;1.15;1.00;;;;;;;;;;5072379;28;20074;-77
2023/10/22 07:57:27;;;;;;;0.98;0.90;;;;;;;;;;5087931;28;20021;-77
2023/10/22 07:59:53;;;;;;;1.13;0.82;;;;;;;;;;5071544;28;20385;-77
2023/10/22 08:02:20;;;;;;;1.30;0.93;;;;;;;;;;5071166;28;20118;-77
2023/10/22 08:04:46;;;;;;;2.85;1.20;;;;;;;;;;5071304;28;20105;-76
2023/10/22 08:07:11;;;;;;;3.00;1.30;;;;;;;;;;5071254;28;20028;-76
2023/10/22 08:09:37;;;;;;;3.13;1.23;;;;;;;;;;5073025;28;20024;-76
2023/10/22 08:12:04;;;;;;;2.13;1.73;;;;;;;;;;5079553;28;20021;-76
2023/10/22 08:14:30;;;;;;;3.60;1.27;;;;;;;;;;5077589;28;20069;-78
2023/10/22 08:16:55;;;;;;;1.73;1.15;;;;;;;;;;5078382;28;20148;-77
2023/10/22 08:19:21;;;;;;;4.70;1.15;;;;;;;;;;5081896;28;20032;-76
2023/10/22 08:21:46;;;;;;;1.42;1.00;;;;;;;;;;5080013;28;20393;-78
2023/10/22 08:24:12;;;;;;;4.10;1.27;;;;;;;;;;5075133;28;20128;-77
2023/10/22 08:26:38;;;;;;;2.85;1.40;;;;;;;;;;5072065;28;20051;-77
2023/10/22 08:29:05;;;;;;;1.70;1.20;;;;;;;;;;5070822;28;20038;-77
2023/10/22 08:31:32;;;;;;;2.25;1.10;;;;;;;;;;5072272;28;20037;-76
2023/10/22 08:33:57;;;;;;;2.53;0.90;;;;;;;;;;5072963;28;20024;-77
2023/10/22 08:36:23;;;;;;;4.20;1.08;;;;;;;;;;5070726;28;20491;-76
2023/10/22 08:38:49;;;;;;;1.70;1.10;;;;;;;;;;5072176;28;20020;-78
2023/10/22 08:41:28;;;;;;;2.40;1.20;;;;;;;;;;5072312;28;20029;-76
2023/10/22 08:43:55;;;;;;;2.72;1.33;;;;;;;;;;5071884;28;20028;-77
2023/10/22 08:46:24;;;;;;;3.80;1.20;;;;;;;;;;5054506;28;20032;-76
2023/10/22 08:48:51;;;;;;;3.60;1.67;;;;;;;;;;5072889;28;20036;-76
2023/10/22 08:51:20;;;;;;;2.75;1.25;;;;;;;;;;5072525;28;20036;-77
2023/10/22 08:53:46;;;;;;;3.58;1.10;;;;;;;;;;5073377;28;20103;-78
2023/10/22 08:56:11;;;;;;;2.92;1.00;;;;;;;;;;5074503;28;20052;-77
2023/10/22 08:58:37;;;;;;;3.47;0.90;;;;;;;;;;5060984;28;20039;-76
2023/10/22 09:01:04;;;;;;;1.48;1.08;;;;;;;;;;5063466;28;20039;-76
2023/10/22 09:03:32;;;;;;;1.20;1.00;;;;;;;;;;5081211;28;20052;-76
2023/10/22 09:05:57;;;;;;;3.33;1.65;;;;;;;;;;5076266;28;20033;-77
2023/10/22 09:08:40;;;;;;;1.45;0.60;;;;;;;;;;5072605;28;20035;-76
2023/10/22 09:11:16;;;;;;;7.00;1.35;;;;;;;;;;5070230;28;20031;-77
2023/10/22 09:13:42;;;;;;;6.22;1.45;;;;;;;;;;5071538;28;20017;-75
2023/10/22 09:16:08;;;;;;;1.92;1.05;;;;;;;;;;5069723;28;20080;-77
2023/10/22 09:18:44;;;;;;;1.60;0.77;;;;;;;;;;5052841;28;20052;-76
2023/10/22 09:21:10;;;;;;;1.85;0.70;;;;;;;;;;5070103;28;20067;-76
2023/10/22 09:23:36;;;;;;;2.33;0.80;;;;;;;;;;5052976;28;20040;-77
2023/10/22 09:26:02;;;;;;;6.53;1.30;;;;;;;;;;5069691;28;20028;-76
2023/10/22 09:28:29;;;;;;;6.88;0.93;;;;;;;;;;5069160;28;20127;-75
2023/10/22 09:31:00;;;;;;;1.65;0.77;;;;;;;;;;5069899;28;20574;-76
2023/10/22 09:33:40;;;;;;;2.40;0.90;;;;;;;;;;5053112;28;20035;-77
2023/10/22 09:36:06;;;;;;;2.50;0.68;;;;;;;;;;5070003;28;20039;-77
2023/10/22 09:38:43;;;;;;;0.82;0.68;;;;;;;;;;5069626;28;20537;-76
2023/10/22 09:41:31;;;;;;;2.65;1.13;;;;;;;;;;5053190;28;20039;-78
2023/10/22 09:43:59;;;;;;;0.93;0.60;;;;;;;;;;5070187;28;20116;-77
2023/10/22 09:46:33;;;;;;;1.98;0.75;;;;;;;;;;5053222;28;20123;-76
2023/10/22 09:49:00;;;;;;;4.53;0.70;;;;;;;;;;5053092;28;20106;-77
2023/10/22 09:51:35;;;;;;;4.55;0.65;;;;;;;;;;5052770;28;20032;-77
2023/10/22 09:54:05;;;;;;;2.28;0.80;;;;;;;;;;5069402;28;20032;-77
2023/10/22 09:56:42;;;;;;;1.73;0.90;;;;;;;;;;5051838;28;20150;-77
2023/10/22 09:59:10;;;;;;;1.13;0.60;;;;;;;;;;5051403;28;20089;-76
2023/10/22 10:01:37;;;;;;;0.85;0.63;;;;;;;;;;5066080;28;20029;-74
2023/10/22 10:04:04;;;;;;;3.60;0.80;;;;;;;;;;5061148;28;20043;-73
2023/10/22 10:06:31;;;;;;;0.95;0.65;;;;;;;;;;5051593;28;20028;-74
2023/10/22 10:08:59;;;;;;;2.30;0.52;;;;;;;;;;5051565;28;20098;-74
2023/10/22 10:11:27;;;;;;;2.63;0.60;;;;;;;;;;5051187;28;20044;-75
2023/10/22 10:13:52;;;;;;;2.88;0.90;;;;;;;;;;5068869;28;20537;-73
2023/10/22 10:16:23;;;;;;;3.20;1.08;;;;;;;;;;5069719;28;20131;-74
2023/10/22 10:19:07;;;;;;;4.32;0.90;;;;;;;;;;5051802;28;20028;-74
2023/10/22 10:21:39;;;;;;;3.30;0.85;;;;;;;;;;5054696;28;20052;-75
2023/10/22 10:24:14;;;;;;;3.05;0.70;;;;;;;;;;5067848;28;20028;-74
2023/10/22 10:26:40;;;;;;;2.17;1.00;;;;;;;;;;5079543;28;20035;-75
2023/10/22 10:29:23;;;;;;;1.23;0.82;;;;;;;;;;5069465;28;20032;-77
2023/10/22 10:31:53;;;;;;;2.05;1.10;;;;;;;;;;5059084;28;20039;-76
2023/10/22 10:34:48;;;;;;;3.95;1.33;;;;;;;;;;5064611;28;20020;-75
2023/10/22 10:37:21;;;;;;;6.53;0.82;;;;;;;;;;5056257;28;20036;-75
2023/10/22 10:39:53;;;;;;;1.90;0.93;;;;;;;;;;5067514;28;20523;-74
2023/10/22 10:42:31;;;;;;;;;;;;;;;;;;5088097;28;20059;-75
2023/10/22 10:44:57;;;;;;;2.17;1.27;;;;;;;;;;5087932;28;19923;-75
2023/10/22 10:47:22;;;;;;;2.47;0.80;;;;;;;;;;5071240;28;20119;-73
2023/10/22 10:50:07;;;;;;;2.75;0.93;;;;;;;;;;5071365;28;20036;-74
2023/10/22 10:52:44;;;;;;;3.28;1.10;;;;;;;;;;5067072;28;20120;-74
2023/10/22 10:55:23;;;;;;;2.45;1.20;;;;;;;;;;5068437;28;20016;-74
2023/10/22 10:57:51;;;;;;;4.03;1.38;;;;;;;;;;5068220;28;20112;-73
2023/10/22 11:00:30;;;;;;;1.58;1.05;;;;;;;;;;5051563;28;20029;-74
2023/10/22 11:03:02;;;;;;;1.98;0.98;;;;;;;;;;5052492;28;20540;-73
2023/10/22 11:05:38;;;;;;;2.97;1.38;;;;;;;;;;5051518;28;20508;-74
2023/10/22 11:08:05;;;;;;;2.25;1.55;;;;;;;;;;5068219;28;20037;-74
2023/10/22 11:10:31;;;;;;;1.83;1.20;;;;;;;;;;5070857;28;20029;-74
2023/10/22 11:13:07;;;;;;;5.90;1.13;;;;;;;;;;5055442;28;20500;-74
2023/10/22 11:15:36;;;;;;;1.33;1.10;;;;;;;;;;5071163;28;20068;-75
2023/10/22 11:18:10;;;;;;;2.63;1.13;;;;;;;;;;5013323;28;20056;-75
2023/10/22 11:20:36;;;;;;;4.57;1.10;;;;;;;;;;5034013;28;20041;-74
2023/10/22 11:23:23;;;;;;;3.25;1.63;;;;;;;;;;5051307;28;20068;-74
2023/10/22 11:25:49;;;;;;;4.20;0.70;;;;;;;;;;5050743;28;20033;-74
2023/10/22 11:28:15;;;;;;;3.50;1.30;;;;;;;;;;5039924;28;20181;-74
2023/10/22 11:30:41;;;;;;;1.45;1.05;;;;;;;;;;5050383;28;20078;-74
2023/10/22 11:33:26;;;;;;;4.47;1.27;;;;;;;;;;5049842;28;20025;-74
2023/10/22 11:35:53;;;;;;;3.33;1.10;;;;;;;;;;5050040;28;20068;-74
2023/10/22 11:38:23;;;;;;;1.30;0.88;;;;;;;;;;5050852;28;20142;-74
2023/10/22 11:41:01;;;;;;;0.85;0.80;;;;;;;;;;5051788;28;20492;-74
2023/10/22 11:43:28;;;;;;;3.60;1.00;;;;;;;;;;5033311;28;20029;-73
2023/10/22 11:45:57;;;;;;;2.00;1.27;;;;;;;;;;5050656;28;20137;-76
2023/10/22 11:48:25;;;;;;;2.58;0.90;;;;;;;;;;5051412;28;20029;-72
2023/10/22 11:51:01;;;;;;;1.60;0.93;;;;;;;;;;5049593;28;20031;-73
2023/10/22 11:53:39;;;;;;;2.78;0.73;;;;;;;;;;5030082;28;20030;-74
2023/10/22 11:56:05;;;;;;;2.17;0.95;;;;;;;;;;5030987;28;20506;-74
2023/10/22 11:58:30;;;;;;;1.38;0.85;;;;;;;;;;5014823;28;20026;-76
2023/10/22 12:00:56;;;;;;;3.58;0.95;;;;;;;;;;5033193;28;20026;-75
2023/10/22 12:03:23;;;;;;;1.95;1.00;;;;;;;;;;5021552;28;20029;-75
2023/10/22 12:05:49;;;;;;;1.45;0.93;;;;;;;;;;5052319;28;20112;-75
2023/10/22 12:08:14;;;;;;;1.55;1.05;;;;;;;;;;5052886;28;20096;-76
2023/10/22 12:10:41;;;;;;;3.72;0.88;;;;;;;;;;5052619;28;20025;-76
2023/10/22 12:13:06;;;;;;;1.88;0.90;;;;;;;;;;5051057;28;20032;-76
2023/10/22 12:15:33;;;;;;;1.63;0.90;;;;;;;;;;5050276;28;20095;-76
2023/10/22 12:17:59;;;;;;;3.15;1.15;;;;;;;;;;5034004;28;20130;-76
2023/10/22 12:20:24;;;;;;;1.77;0.75;;;;;;;;;;5052429;28;20025;-75
2023/10/22 12:22:50;;;;;;;1.08;0.80;;;;;;;;;;5051109;28;20056;-75
2023/10/22 12:25:16;;;;;;;3.67;1.00;;;;;;;;;;5052431;28;20094;-76
2023/10/22 12:27:42;;;;;;;5.20;1.15;;;;;;;;;;5037687;28;20111;-76
2023/10/22 12:30:08;;;;;;;2.60;1.27;;;;;;;;;;5056003;28;20067;-75
2023/10/22 12:32:34;;;;;;;1.48;1.23;;;;;;;;;;5062310;28;20029;-75
2023/10/22 12:35:00;;;;;;;4.32;1.98;;;;;;;;;;5059363;28;20032;-75
2023/10/22 12:37:26;;;;;;;2.95;1.00;;;;;;;;;;5051967;28;20376;-76
2023/10/22 12:39:52;;;;;;;4.43;0.77;;;;;;;;;;5034754;28;20029;-75
2023/10/22 12:42:17;;;;;;;3.10;1.00;;;;;;;;;;5051590;28;20036;-77
2023/10/22 12:44:44;;;;;;;2.55;1.00;;;;;;;;;;5052897;28;20029;-77
2023/10/22 12:47:14;;;;;;;1.80;0.73;;;;;;;;;;5052870;28;20083;-75
2023/10/22 12:49:43;;;;;;;2.33;0.80;;;;;;;;;;5050539;28;20028;-75
2023/10/22 12:52:13;;;;;;;2.70;0.80;;;;;;;;;;5051606;28;20047;-75
2023/10/22 12:54:39;;;;;;;1.65;0.60;;;;;;;;;;5033766;28;20013;-78
2023/10/22 12:57:08;;;;;;;3.97;1.08;;;;;;;;;;5050253;28;20044;-76
2023/10/22 12:59:34;;;;;;;1.00;0.82;;;;;;;;;;5033251;28;20025;-75
2023/10/22 13:02:00;;;;;;;2.72;0.85;;;;;;;;;;5049875;28;20043;-77
2023/10/22 13:04:27;;;;;;;0.52;0.50;;;;;;;;;;5049499;28;20032;-77
2023/10/22 13:06:55;;;;;;;2.20;1.98;;;;;;;;;;5049437;28;20029;-76
2023/10/22 13:09:21;;;;;;;2.13;0.98;;;;;;;;;;5050427;28;20364;-76
2023/10/22 13:11:47;;;;;;;2.42;1.00;;;;;;;;;;5049810;28;20028;-74
2023/10/22 13:14:18;;;;;;;2.20;0.85;;;;;;;;;;5049880;28;20029;-77
2023/10/22 13:16:48;;;;;;;1.35;0.80;;;;;;;;;;5051239;28;20119;-76
2023/10/22 13:19:14;;;;;;;3.47;0.85;;;;;;;;;;5049753;28;20028;-77
2023/10/22 13:21:40;;;;;;;4.07;1.10;;;;;;;;;;5033054;28;20116;-76
2023/10/22 13:24:06;;;;;;;3.38;0.80;;;;;;;;;;5049432;28;20148;-78
2023/10/22 13:26:33;;;;;;;4.18;1.02;;;;;;;;;;5049140;28;20020;-76
2023/10/22 13:29:06;;;;;;;1.95;0.80;;;;;;;;;;5049058;28;20040;-76
2023/10/22 13:31:34;;;;;;;2.30;0.80;;;;;;;;;;5049517;28;20029;-76
2023/10/22 13:34:00;;;;;;;4.63;1.02;;;;;;;;;;5049230;28;20104;-75
2023/10/22 13:36:27;;;;;;;2.63;0.70;;;;;;;;;;5050329;28;20108;-76
2023/10/22 13:38:52;;;;;;;5.22;1.02;;;;;;;;;;5048740;28;20075;-77
2023/10/22 13:41:18;;;;;;;6.22;1.10;;;;;;;;;;5050337;28;20025;-76
2023/10/22 13:43:43;;;;;;;2.25;0.90;;;;;;;;;;5032571;28;20021;-75
2023/10/22 13:46:09;;;;;;;2.97;0.90;;;;;;;;;;5051208;28;20025;-75
2023/10/22 13:48:34;;;;;;;8.00;1.10;;;;;;;;;;5051195;28;20027;-76
2023/10/22 13:51:04;;;;;;;1.55;0.60;;;;;;;;;;5050779;28;20432;-77
2023/10/22 13:53:30;;;;;;;1.75;0.88;;;;;;;;;;5034554;28;20029;-76
2023/10/22 13:55:56;;;;;;;2.63;0.55;;;;;;;;;;5051090;28;20052;-77
2023/10/22 13:58:22;;;;;;;1.60;0.80;;;;;;;;;;5053472;28;20021;-75
2023/10/22 14:00:48;;;;;;;3.47;0.80;;;;;;;;;;5053846;28;20118;-75
2023/10/22 14:03:13;;;;;;;3.08;0.95;;;;;;;;;;5052290;28;20025;-77
2023/10/22 14:05:47;;;;;;;5.30;1.45;;;;;;;;;;5049571;28;20467;-75
2023/10/22 14:08:12;;;;;;;2.00;0.57;;;;;;;;;;5032261;28;20032;-75
2023/10/22 14:10:41;;;;;;;7.47;1.60;;;;;;;;;;5048712;28;20636;-75
2023/10/22 14:13:07;;;;;;;3.30;0.70;;;;;;;;;;5048613;28;20559;-76
2023/10/22 14:15:33;;;;;;;5.53;1.33;;;;;;;;;;5050252;28;20063;-75
2023/10/22 14:17:59;;;;;;;3.85;0.82;;;;;;;;;;5050643;28;20029;-75
2023/10/22 14:20:28;;;;;;;1.98;0.70;;;;;;;;;;5048994;28;20258;-76
2023/10/22 14:22:54;;;;;;;2.80;0.60;;;;;;;;;;5049220;28;20029;-76
2023/10/22 14:25:20;;;;;;;6.53;1.05;;;;;;;;;;5032459;28;20059;-76
2023/10/22 14:27:47;;;;;;;5.65;0.77;;;;;;;;;;5033105;28;20108;-76
2023/10/22 14:30:13;;;;;;;2.75;0.60;;;;;;;;;;5048698;28;20481;-75
2023/10/22 14:32:40;;;;;;;3.88;0.82;;;;;;;;;;5048015;28;20501;-76
2023/10/22 14:35:08;;;;;;;3.50;0.80;;;;;;;;;;5048736;28;20120;-75
2023/10/22 14:37:34;;;;;;;5.22;0.90;;;;;;;;;;5048567;28;20070;-75
2023/10/22 14:40:00;;;;;;;1.95;0.90;;;;;;;;;;5050374;28;20017;-76
2023/10/22 14:42:26;;;;;;;3.33;0.90;;;;;;;;;;5032165;28;20500;-76
2023/10/22 14:44:51;;;;;;;10.18;1.58;;;;;;;;;;5050127;28;20120;-76